PST,Max TemperatureF,Mean TemperatureF,Min TemperatureF,Max Dew PointF,MeanDew PointF,Min DewpointF,Max Humidity, Mean Humidity, Min Humidity, Max Sea Level PressureIn, Mean Sea Level PressureIn, Min Sea Level PressureIn, Max VisibilityMiles, Mean VisibilityMiles, Min VisibilityMiles, Max Wind SpeedMPH, Mean Wind SpeedMPH, Max Gust SpeedMPH,PrecipitationIn, CloudCover, Events, WindDirDegrees
2011-11-1,63,58,53,56,54,52,100,93,75,29.96,29.93,29.90,7,3,0,13,9,,0.00,6,Fog,326
2011-11-2,72,62,53,55,47,31,100,67,26,30.08,30.01,29.96,10,7,0,13,8,,0.00,1,Fog,105
2011-11-3,64,59,55,55,52,43,94,78,62,30.01,29.96,29.88,10,8,5,12,8,,0.00,6,,204
2011-11-4,60,54,50,53,47,42,88,77,62,29.88,29.82,29.75,10,8,6,21,14,28,0.01,5,Rain,278
2011-11-5,60,55,51,46,43,39,83,67,53,30.04,29.98,29.86,10,9,7,29,24,32,0.00,0,,307
2011-11-6,60,54,50,52,48,45,94,82,64,30.05,30.01,29.98,10,7,2,23,14,28,0.00,4,Rain,299
2011-11-7,59,54,48,48,45,42,93,75,55,30.19,30.12,30.03,10,8,7,24,21,28,0.00,0,,313
2011-11-8,62,54,46,52,45,40,93,78,50,30.25,30.21,30.18,10,8,7,8,6,,0.00,1,,86
2011-11-9,64,54,45,45,36,21,86,52,25,30.23,30.17,30.13,10,8,7,14,7,,0.00,2,,43
2011-11-10,64,58,51,44,35,29,66,42,28,30.14,30.07,29.97,10,10,10,,,,0.00,0,,-1
2011-11-11,63,59,55,58,53,35,100,86,45,29.97,29.84,29.74,10,6,0,14,10,,0.12,6,Rain,167
2011-11-12,57,55,53,58,55,52,100,99,94,29.84,29.77,29.72,10,4,0,17,13,,0.00,7,Fog-Rain,80
2011-11-13,64,58,53,56,52,45,100,84,65,29.98,29.90,29.83,10,8,3,9,8,,0.00,3,,98
2011-11-14,57,54,51,54,51,48,100,91,78,30.01,29.96,29.91,9,6,1,28,20,,0.00,5,,293
2011-11-15,62,58,53,53,51,48,86,79,66,30.09,30.04,29.99,10,8,6,20,11,,0.00,3,,343
2011-11-16,62,56,51,52,51,48,89,81,67,30.16,30.10,30.06,10,6,0,12,7,,0.00,4,Fog,13
2011-11-17,69,60,51,56,52,46,96,84,57,30.10,30.02,29.96,10,8,7,17,5,,0.00,2,,311
2011-11-18,59,55,51,54,50,46,100,87,67,30.00,29.95,29.91,10,8,6,33,16,,0.00,5,,305
2011-11-19,57,52,48,48,47,44,89,80,67,29.96,29.93,29.90,10,9,7,21,18,,0.00,2,,275
2011-11-20,54,52,46,54,50,44,100,92,82,30.01,29.93,29.88,10,6,0,,,,0.00,7,Rain,-1
2011-11-21,55,50,46,50,46,42,93,84,72,30.27,30.16,30.01,10,9,7,14,10,,0.00,1,,291
2011-11-22,57,51,45,49,46,42,93,85,67,30.28,30.19,30.10,10,9,7,10,8,,0.00,1,,314
2011-11-23,57,52,48,52,47,44,93,82,67,30.08,30.00,29.95,10,9,7,13,9,,0.00,4,,247
2011-11-24,57,54,50,54,51,47,96,88,77,30.12,30.02,29.93,10,8,1,12,8,,0.09,6,Rain,113
2011-11-25,61,56,52,53,50,45,96,82,57,30.22,30.17,30.12,10,8,7,13,10,,0.00,2,,307
2011-11-26,72,63,54,54,40,28,75,47,23,30.28,30.23,30.21,10,9,7,5,2,,0.00,0,,343
2011-11-27,77,66,55,37,31,18,49,28,13,30.28,30.22,30.16,10,9,7,4,2,,0.00,0,,43
2011-11-28,73,64,55,50,39,29,64,43,27,30.15,30.10,30.05,10,9,7,16,9,,0.00,3,,310
2011-11-29,70,62,53,52,42,25,77,53,22,30.08,30.04,30.01,10,9,7,12,9,,0.00,3,,297
2011-11-30,63,57,51,54,49,39,100,79,51,30.01,29.91,29.81,10,8,4,31,15,,0.00,2,,290